Terminal Aerodrome Forecast
Issued by NWS Melbourne, FL

Home | Current Version | Previous Version | Text Only | Print | Product List | Glossary On
Versions: 1 2 3 4 5 6 7 8 9 10 11 12 13 14 15 16 17 18 19 20 21 22 23 24
576
FTUS42 KMLB 302059 AAB
TAFMCO
TAF AMD
KMCO 302059Z 3021/3118 VRB06KT P6SM VCTS SCT045CB SCT100 BKN250
     FM302300 11007KT P6SM SCT035 SCT080 BKN250
     FM310100 13004KT P6SM FEW030 SCT100 BKN250
     FM310600 15003KT P6SM SCT250
     FM311500 16005KT P6SM SCT030 SCT050=

USA.gov is the U.S. government's official web portal to all federal, state and local government web resources and services.